createdAt,value
2023-02-19T00:00:47.655Z,11.12
2023-02-19T00:01:37.636Z,11.13
2023-02-19T00:02:27.631Z,11.12
2023-02-19T00:03:17.701Z,11.11
2023-02-19T00:04:07.610Z,11.09
2023-02-19T00:04:57.666Z,11.11
2023-02-19T00:05:47.574Z,11.11
2023-02-19T00:06:37.610Z,11.11
2023-02-19T00:07:27.555Z,11.06
2023-02-19T00:08:17.564Z,11.06
2023-02-19T00:09:07.550Z,11.05
2023-02-19T00:09:57.533Z,11.05
2023-02-19T00:10:47.523Z,11.03
2023-02-19T00:11:37.523Z,11.03
2023-02-19T00:12:27.511Z,11.02
2023-02-19T00:13:17.493Z,11.03
2023-02-19T00:14:07.523Z,11.03
2023-02-19T00:14:57.490Z,11.02
2023-02-19T00:15:47.503Z,11.02
2023-02-19T00:16:37.471Z,11.03
2023-02-19T00:17:27.554Z,11.02
2023-02-19T00:18:17.431Z,11.02
2023-02-19T00:19:07.438Z,11.02
2023-02-19T00:19:57.423Z,11.03
2023-02-19T00:20:47.428Z,11.03
2023-02-19T00:21:37.411Z,11.03
2023-02-19T00:22:27.412Z,11.05
2023-02-19T00:23:17.381Z,11.05
2023-02-19T00:24:07.371Z,11.06
2023-02-19T00:24:57.371Z,11.08
2023-02-19T00:25:47.353Z,11.09
2023-02-19T00:26:37.351Z,11.09
2023-02-19T00:27:27.332Z,11.11
2023-02-19T00:28:17.332Z,11.11
2023-02-19T00:29:07.315Z,11.11
2023-02-19T00:29:57.319Z,11.09
2023-02-19T00:30:47.355Z,11.08
2023-02-19T00:31:37.422Z,11.08
2023-02-19T00:32:27.282Z,11.08
2023-02-19T00:33:17.272Z,11.08
2023-02-19T00:34:07.277Z,11.06
2023-02-19T00:34:57.251Z,11.08
2023-02-19T00:35:47.253Z,11.06
2023-02-19T00:36:37.262Z,11.06
2023-02-19T00:37:27.222Z,11.05
2023-02-19T00:38:17.214Z,11.03
2023-02-19T00:39:07.229Z,11.02
2023-02-19T00:39:57.207Z,11.03
2023-02-19T00:40:47.206Z,11.01
2023-02-19T00:41:37.201Z,10.99
2023-02-19T00:42:27.189Z,11.01
2023-02-19T00:43:17.164Z,11.01
2023-02-19T00:44:07.169Z,11.02
2023-02-19T00:44:57.152Z,11.02
2023-02-19T00:45:47.131Z,11.01
2023-02-19T00:46:37.244Z,11.01
2023-02-19T00:47:27.132Z,11.02
2023-02-19T00:48:17.103Z,11.02
2023-02-19T00:49:07.119Z,11.03
2023-02-19T00:49:57.104Z,11.06
2023-02-19T00:50:47.073Z,11.05
2023-02-19T00:51:37.122Z,11.03
2023-02-19T00:52:27.085Z,11.01
2023-02-19T00:53:17.055Z,11.02
2023-02-19T00:54:07.042Z,11.01
2023-02-19T00:54:57.023Z,11.02
2023-02-19T00:55:47.014Z,10.99
2023-02-19T00:56:37.032Z,10.95
2023-02-19T00:57:27.009Z,10.94
2023-02-19T00:58:16.985Z,10.94
2023-02-19T00:59:06.982Z,10.94
2023-02-19T00:59:56.971Z,10.91
2023-02-19T01:00:46.983Z,10.93
2023-02-19T01:01:37.018Z,10.90
2023-02-19T01:02:26.962Z,10.91
2023-02-19T01:03:16.928Z,10.88
2023-02-19T01:04:07.074Z,10.87
2023-02-19T01:04:56.977Z,10.87
2023-02-19T01:05:46.906Z,10.87
2023-02-19T01:06:36.932Z,10.88
2023-02-19T01:07:26.897Z,10.87
2023-02-19T01:08:16.879Z,10.88
2023-02-19T01:09:06.889Z,10.88
2023-02-19T01:09:56.877Z,10.90
2023-02-19T01:10:46.860Z,10.88
2023-02-19T01:11:36.857Z,10.88
2023-02-19T01:12:26.833Z,10.88
2023-02-19T01:13:16.829Z,10.88
2023-02-19T01:14:06.827Z,10.90
2023-02-19T01:14:56.815Z,10.87
2023-02-19T01:15:46.871Z,10.86
2023-02-19T01:16:36.820Z,10.84
2023-02-19T01:17:26.778Z,10.83
2023-02-19T01:18:16.756Z,10.83
2023-02-19T01:19:06.773Z,10.83
2023-02-19T01:19:56.735Z,10.83
2023-02-19T01:20:46.737Z,10.81
2023-02-19T01:21:36.736Z,10.81
2023-02-19T01:22:26.738Z,10.80
2023-02-19T01:23:16.718Z,10.78
2023-02-19T01:24:06.705Z,10.78
2023-02-19T01:24:56.688Z,10.78
2023-02-19T01:25:46.701Z,10.78
2023-02-19T01:26:36.698Z,10.78
2023-02-19T01:27:26.669Z,10.80
2023-02-19T01:28:16.663Z,10.80
2023-02-19T01:29:06.644Z,10.78
2023-02-19T01:29:56.626Z,10.78
2023-02-19T01:30:46.667Z,10.75
2023-02-19T01:31:36.757Z,10.72
2023-02-19T01:32:26.603Z,10.70
2023-02-19T01:33:16.613Z,10.70
2023-02-19T01:34:06.612Z,10.69
2023-02-19T01:34:56.605Z,10.69
2023-02-19T01:35:46.562Z,10.69
2023-02-19T01:36:36.562Z,10.68
2023-02-19T01:37:26.545Z,10.68
2023-02-19T01:38:16.561Z,10.69
2023-02-19T01:39:06.539Z,10.69
2023-02-19T01:39:56.523Z,10.69
2023-02-19T01:40:46.504Z,10.69
2023-02-19T01:41:36.527Z,10.69
2023-02-19T01:42:26.503Z,10.65
2023-02-19T01:43:16.490Z,10.63
2023-02-19T01:44:06.490Z,10.62
2023-02-19T01:44:56.474Z,10.63
2023-02-19T01:45:46.453Z,10.65
2023-02-19T01:46:36.510Z,10.66
2023-02-19T01:47:26.440Z,10.63
2023-02-19T01:48:16.434Z,10.66
2023-02-19T01:49:06.415Z,10.68
2023-02-19T01:49:56.404Z,10.66
2023-02-19T01:50:46.415Z,10.66
2023-02-19T01:51:36.403Z,10.63
2023-02-19T01:52:26.395Z,10.62
2023-02-19T01:53:16.383Z,10.58
2023-02-19T01:54:06.363Z,10.58
2023-02-19T01:54:56.421Z,10.57
2023-02-19T01:55:46.354Z,10.55
2023-02-19T01:56:36.374Z,10.51
2023-02-19T01:57:26.332Z,10.49
2023-02-19T01:58:16.326Z,10.46
2023-02-19T01:59:06.313Z,10.44
2023-02-19T01:59:56.381Z,10.46
2023-02-19T02:00:46.289Z,10.47
2023-02-19T02:01:36.349Z,10.47
2023-02-19T02:02:26.272Z,10.49
2023-02-19T02:03:16.277Z,10.47
2023-02-19T02:04:06.245Z,10.46
2023-02-19T02:04:56.283Z,10.44
2023-02-19T02:05:46.257Z,10.42
2023-02-19T02:06:36.252Z,10.38
2023-02-19T02:07:26.206Z,10.36
2023-02-19T02:08:16.263Z,10.36
2023-02-19T02:09:06.208Z,10.29
2023-02-19T02:09:56.198Z,10.28
2023-02-19T02:10:46.179Z,10.25
2023-02-19T02:11:36.190Z,10.22
2023-02-19T02:12:26.173Z,10.20
2023-02-19T02:13:16.144Z,10.20
2023-02-19T02:14:06.149Z,10.20
2023-02-19T02:14:56.134Z,10.22
2023-02-19T02:15:46.134Z,10.17
2023-02-19T02:16:36.135Z,10.17
2023-02-19T02:17:26.106Z,10.17
2023-02-19T02:18:16.106Z,10.17
2023-02-19T02:19:06.092Z,10.17
2023-02-19T02:19:56.093Z,10.14
2023-02-19T02:20:46.065Z,10.13
2023-02-19T02:21:36.060Z,10.14
2023-02-19T02:22:26.054Z,10.16
2023-02-19T02:23:16.045Z,10.17
2023-02-19T02:24:06.024Z,10.17
2023-02-19T02:24:56.014Z,10.17
2023-02-19T02:25:46.004Z,10.16
2023-02-19T02:26:36.014Z,10.14
2023-02-19T02:27:25.995Z,10.13
2023-02-19T02:28:15.994Z,10.11
2023-02-19T02:29:05.985Z,10.11
2023-02-19T02:29:55.962Z,10.13
2023-02-19T02:30:45.944Z,10.16
2023-02-19T02:31:36.109Z,10.16
2023-02-19T02:32:25.927Z,10.17
2023-02-19T02:33:15.923Z,10.14
2023-02-19T02:34:05.920Z,10.16
2023-02-19T02:34:55.921Z,10.13
2023-02-19T02:35:45.902Z,10.13
2023-02-19T02:36:35.916Z,10.11
2023-02-19T02:37:25.887Z,10.10
2023-02-19T02:38:15.864Z,10.10
2023-02-19T02:39:05.870Z,10.11
2023-02-19T02:39:55.854Z,10.07
2023-02-19T02:40:45.857Z,10.07
2023-02-19T02:41:35.843Z,10.09
2023-02-19T02:42:25.822Z,10.09
2023-02-19T02:43:15.832Z,10.07
2023-02-19T02:44:05.801Z,9.99
2023-02-19T02:44:55.791Z,9.93
2023-02-19T02:45:45.839Z,9.95
2023-02-19T02:46:35.800Z,9.93
2023-02-19T02:47:25.779Z,9.92
2023-02-19T02:48:15.777Z,9.89
2023-02-19T02:49:05.757Z,9.88
2023-02-19T02:49:55.742Z,9.81
2023-02-19T02:50:45.734Z,9.77
2023-02-19T02:51:35.764Z,9.73
2023-02-19T02:52:25.720Z,9.68
2023-02-19T02:53:15.691Z,9.63
2023-02-19T02:54:05.694Z,9.60
2023-02-19T02:54:55.688Z,9.58
2023-02-19T02:55:45.667Z,9.53
2023-02-19T02:56:35.686Z,9.53
2023-02-19T02:57:25.667Z,9.55
2023-02-19T02:58:15.657Z,9.50
2023-02-19T02:59:05.631Z,9.48
2023-02-19T02:59:55.620Z,9.38
2023-02-19T03:00:45.652Z,9.40
2023-02-19T03:01:35.637Z,9.40
2023-02-19T03:02:25.645Z,9.34
2023-02-19T03:03:15.592Z,9.27
2023-02-19T03:04:05.577Z,9.27
2023-02-19T03:04:55.560Z,9.30
2023-02-19T03:05:45.570Z,9.27
2023-02-19T03:06:35.558Z,9.23
2023-02-19T03:07:25.552Z,9.20
2023-02-19T03:08:15.542Z,9.19
2023-02-19T03:09:05.526Z,9.17
2023-02-19T03:09:55.525Z,9.17
2023-02-19T03:10:45.494Z,9.16
2023-02-19T03:11:35.507Z,9.15
2023-02-19T03:12:25.491Z,9.15
2023-02-19T03:13:15.480Z,9.13
2023-02-19T03:14:05.488Z,9.13
2023-02-19T03:14:55.449Z,9.06
2023-02-19T03:15:45.439Z,9.03
2023-02-19T03:16:35.529Z,9.04
2023-02-19T03:17:25.446Z,9.03
2023-02-19T03:18:15.418Z,9.04
2023-02-19T03:19:05.399Z,9.06
2023-02-19T03:19:55.414Z,9.04
2023-02-19T03:20:45.380Z,9.08
2023-02-19T03:21:35.394Z,9.12
2023-02-19T03:22:25.377Z,9.10
2023-02-19T03:23:15.365Z,9.12
2023-02-19T03:24:05.363Z,9.13
2023-02-19T03:24:55.355Z,9.12
2023-02-19T03:25:45.333Z,9.13
2023-02-19T03:26:35.343Z,9.15
2023-02-19T03:27:25.301Z,9.15
2023-02-19T03:28:15.302Z,9.17
2023-02-19T03:29:05.312Z,9.19
2023-02-19T03:29:55.293Z,9.19
2023-02-19T03:30:45.287Z,9.19
2023-02-19T03:31:35.339Z,9.22
2023-02-19T03:32:25.261Z,9.23
2023-02-19T03:33:15.244Z,9.24
2023-02-19T03:34:05.243Z,9.26
2023-02-19T03:34:55.241Z,9.27
2023-02-19T03:35:45.218Z,9.27
2023-02-19T03:36:35.219Z,9.26
2023-02-19T03:37:25.226Z,9.26
2023-02-19T03:38:15.203Z,9.24
2023-02-19T03:39:05.189Z,9.24
2023-02-19T03:39:55.169Z,9.24
2023-02-19T03:40:45.172Z,9.23
2023-02-19T03:41:35.153Z,9.22
2023-02-19T03:42:25.164Z,9.20
2023-02-19T03:43:15.143Z,9.22
2023-02-19T03:44:05.114Z,9.20
2023-02-19T03:44:55.130Z,9.22
2023-02-19T03:45:45.114Z,9.23
2023-02-19T03:46:35.111Z,9.24
2023-02-19T03:47:25.082Z,9.23
2023-02-19T03:48:15.070Z,9.24
2023-02-19T03:49:05.078Z,9.23
2023-02-19T03:49:55.066Z,9.22
2023-02-19T03:50:45.061Z,9.26
2023-02-19T03:51:35.039Z,9.27
2023-02-19T03:52:25.050Z,9.26
2023-02-19T03:53:15.040Z,9.30
2023-02-19T03:54:05.006Z,9.30
2023-02-19T03:54:55.022Z,9.30
2023-02-19T03:55:44.991Z,9.31
2023-02-19T03:56:34.991Z,9.30
2023-02-19T03:57:24.989Z,9.30
2023-02-19T03:58:14.981Z,9.27
2023-02-19T03:59:04.951Z,9.27
2023-02-19T03:59:54.961Z,9.27
2023-02-19T04:00:44.951Z,9.27
2023-02-19T04:01:34.941Z,9.27
2023-02-19T04:02:24.954Z,9.31
2023-02-19T04:03:14.911Z,9.31
2023-02-19T04:04:04.896Z,9.30
2023-02-19T04:04:54.910Z,9.26
2023-02-19T04:05:44.900Z,9.26
2023-02-19T04:06:34.887Z,9.26
2023-02-19T04:07:24.862Z,9.26
2023-02-19T04:08:14.853Z,9.26
2023-02-19T04:09:04.854Z,9.26
2023-02-19T04:09:54.846Z,9.26
2023-02-19T04:10:44.847Z,9.24
2023-02-19T04:11:34.843Z,9.23
2023-02-19T04:12:24.832Z,9.19
2023-02-19T04:13:14.809Z,9.17
2023-02-19T04:14:04.791Z,9.15
2023-02-19T04:14:54.812Z,9.06
2023-02-19T04:15:44.762Z,9.08
2023-02-19T04:16:34.861Z,9.03
2023-02-19T04:17:24.752Z,9.01
2023-02-19T04:18:14.751Z,9.00
2023-02-19T04:19:04.743Z,8.94
2023-02-19T04:19:54.731Z,8.94
2023-02-19T04:20:44.724Z,8.96
2023-02-19T04:21:34.708Z,8.97
2023-02-19T04:22:24.719Z,8.97
2023-02-19T04:23:14.687Z,9.00
2023-02-19T04:24:04.683Z,9.03
2023-02-19T04:24:54.669Z,9.04
2023-02-19T04:25:44.664Z,9.06
2023-02-19T04:26:34.672Z,9.08
2023-02-19T04:27:24.638Z,9.06
2023-02-19T04:28:14.642Z,9.06
2023-02-19T04:29:04.639Z,9.08
2023-02-19T04:29:54.631Z,9.12
2023-02-19T04:30:44.669Z,9.12
2023-02-19T04:31:34.708Z,9.13
2023-02-19T04:32:24.598Z,9.13
2023-02-19T04:33:14.587Z,9.13
2023-02-19T04:34:04.556Z,9.16
2023-02-19T04:34:54.567Z,9.16
2023-02-19T04:35:44.536Z,9.17
2023-02-19T04:36:34.545Z,9.19
2023-02-19T04:37:24.527Z,9.20
2023-02-19T04:38:14.521Z,9.23
2023-02-19T04:39:04.519Z,9.24
2023-02-19T04:39:54.495Z,9.27
2023-02-19T04:40:44.483Z,9.30
2023-02-19T04:41:34.494Z,9.27
2023-02-19T04:42:24.472Z,9.26
2023-02-19T04:43:14.473Z,9.24
2023-02-19T04:44:04.453Z,9.23
2023-02-19T04:44:54.448Z,9.22
2023-02-19T04:45:44.425Z,9.22
2023-02-19T04:46:34.429Z,9.23
2023-02-19T04:47:24.422Z,9.23
2023-02-19T04:48:14.402Z,9.22
2023-02-19T04:49:04.412Z,9.20
2023-02-19T04:49:54.385Z,9.22
2023-02-19T04:50:44.368Z,9.26
2023-02-19T04:51:34.375Z,9.24
2023-02-19T04:52:24.378Z,9.26
2023-02-19T04:53:14.365Z,9.24
2023-02-19T04:54:04.348Z,9.23
2023-02-19T04:54:54.328Z,9.22
2023-02-19T04:55:44.316Z,9.22
2023-02-19T04:56:34.310Z,9.22
2023-02-19T04:57:24.291Z,9.19
2023-02-19T04:58:14.299Z,9.20
2023-02-19T04:59:04.269Z,9.19
2023-02-19T04:59:54.260Z,9.15
2023-02-19T05:00:44.250Z,9.16
2023-02-19T05:01:34.304Z,9.16
2023-02-19T05:02:24.259Z,9.17
2023-02-19T05:03:14.242Z,9.19
2023-02-19T05:04:04.250Z,9.22
2023-02-19T05:04:54.229Z,9.22
2023-02-19T05:05:44.211Z,9.20
2023-02-19T05:06:34.202Z,9.19
2023-02-19T05:07:24.182Z,9.16
2023-02-19T05:08:14.172Z,9.12
2023-02-19T05:09:04.182Z,9.06
2023-02-19T05:09:54.151Z,9.04
2023-02-19T05:10:44.140Z,9.01
2023-02-19T05:11:34.145Z,9.00
2023-02-19T05:12:24.140Z,8.98
2023-02-19T05:13:14.169Z,8.98
2023-02-19T05:14:04.102Z,9.00
2023-02-19T05:14:54.110Z,8.98
2023-02-19T05:15:44.110Z,8.94
2023-02-19T05:16:34.095Z,8.97
2023-02-19T05:17:24.068Z,8.94
2023-02-19T05:18:14.048Z,8.93
2023-02-19T05:19:04.070Z,8.91
2023-02-19T05:19:54.048Z,8.93
2023-02-19T05:20:44.045Z,8.93
2023-02-19T05:21:34.017Z,8.91
2023-02-19T05:22:24.037Z,8.89
2023-02-19T05:23:14.017Z,8.85
2023-02-19T05:24:03.997Z,8.83
2023-02-19T05:24:53.981Z,8.83
2023-02-19T05:25:43.979Z,8.80
2023-02-19T05:26:33.986Z,8.76
2023-02-19T05:27:23.976Z,8.75
2023-02-19T05:28:13.964Z,8.76
2023-02-19T05:29:03.935Z,8.75
2023-02-19T05:29:53.937Z,8.75
2023-02-19T05:30:43.949Z,8.71
2023-02-19T05:31:34.114Z,8.70
2023-02-19T05:32:23.916Z,8.68
2023-02-19T05:33:13.885Z,8.64
2023-02-19T05:34:03.887Z,8.61
2023-02-19T05:34:53.875Z,8.58
2023-02-19T05:35:43.856Z,8.57
2023-02-19T05:36:33.863Z,8.57
2023-02-19T05:37:23.865Z,8.57
2023-02-19T05:38:13.846Z,8.55
2023-02-19T05:39:03.833Z,8.54
2023-02-19T05:39:53.807Z,8.54
2023-02-19T05:40:43.817Z,8.52
2023-02-19T05:41:33.811Z,8.50
2023-02-19T05:42:23.814Z,8.50
2023-02-19T05:43:13.777Z,8.52
2023-02-19T05:44:03.764Z,8.52
2023-02-19T05:44:53.757Z,8.52
2023-02-19T05:45:43.772Z,8.54
2023-02-19T05:46:33.800Z,8.52
2023-02-19T05:47:23.733Z,8.52
2023-02-19T05:48:13.749Z,8.54
2023-02-19T05:49:03.713Z,8.55
2023-02-19T05:49:53.708Z,8.54
2023-02-19T05:50:43.684Z,8.50
2023-02-19T05:51:33.680Z,8.46
2023-02-19T05:52:23.692Z,8.40
2023-02-19T05:53:13.674Z,8.42
2023-02-19T05:54:03.673Z,8.39
2023-02-19T05:54:53.634Z,8.37
2023-02-19T05:55:43.639Z,8.36
2023-02-19T05:56:33.628Z,8.34
2023-02-19T05:57:23.634Z,8.34
2023-02-19T05:58:13.604Z,8.31
2023-02-19T05:59:03.594Z,8.29
2023-02-19T05:59:53.606Z,8.29
2023-02-19T06:00:43.587Z,8.29
2023-02-19T06:01:33.596Z,8.28
2023-02-19T06:02:23.602Z,8.28
2023-02-19T06:03:13.543Z,8.25
2023-02-19T06:04:03.561Z,8.24
2023-02-19T06:04:53.546Z,8.22
2023-02-19T06:05:43.537Z,8.20
2023-02-19T06:06:33.510Z,8.20
2023-02-19T06:07:23.523Z,8.20
2023-02-19T06:08:13.503Z,8.20
2023-02-19T06:09:03.501Z,8.21
2023-02-19T06:09:53.471Z,8.21
2023-02-19T06:10:43.479Z,8.22
2023-02-19T06:11:33.477Z,8.21
2023-02-19T06:12:23.450Z,8.21
2023-02-19T06:13:13.450Z,8.20
2023-02-19T06:14:03.441Z,8.18
2023-02-19T06:14:53.421Z,8.13
2023-02-19T06:15:43.400Z,8.07
2023-02-19T06:16:33.401Z,8.07
2023-02-19T06:17:23.421Z,8.07
2023-02-19T06:18:13.412Z,8.07
2023-02-19T06:19:03.370Z,8.10
2023-02-19T06:19:53.378Z,8.09
2023-02-19T06:20:43.359Z,8.10
2023-02-19T06:21:33.352Z,8.09
2023-02-19T06:22:23.354Z,8.06
2023-02-19T06:23:13.339Z,8.06
2023-02-19T06:24:03.323Z,8.04
2023-02-19T06:24:53.300Z,8.07
2023-02-19T06:25:43.311Z,8.07
2023-02-19T06:26:33.313Z,8.13
2023-02-19T06:27:23.290Z,8.13
2023-02-19T06:28:13.261Z,8.17
2023-02-19T06:29:03.272Z,8.18
2023-02-19T06:29:53.267Z,8.20
2023-02-19T06:30:43.240Z,8.21
2023-02-19T06:31:33.337Z,8.20
2023-02-19T06:32:23.355Z,8.18
2023-02-19T06:33:13.236Z,8.18
2023-02-19T06:34:03.201Z,8.14
2023-02-19T06:34:53.206Z,8.14
2023-02-19T06:35:43.205Z,8.14
2023-02-19T06:36:33.181Z,8.14
2023-02-19T06:37:23.317Z,8.13
2023-02-19T06:38:13.193Z,8.13
2023-02-19T06:39:03.217Z,8.13
2023-02-19T06:39:53.146Z,8.13
2023-02-19T06:40:43.153Z,8.10
2023-02-19T06:41:33.122Z,8.07
2023-02-19T06:42:23.134Z,8.07
2023-02-19T06:43:13.114Z,8.07
2023-02-19T06:44:03.093Z,8.06
2023-02-19T06:44:53.102Z,8.07
2023-02-19T06:45:43.084Z,8.07
2023-02-19T06:46:33.082Z,8.09
2023-02-19T06:47:25.389Z,8.10
2023-02-19T06:48:13.053Z,8.10
2023-02-19T06:49:03.032Z,8.09
2023-02-19T06:49:53.024Z,8.07
2023-02-19T06:50:43.022Z,8.07
2023-02-19T06:51:33.034Z,8.04
2023-02-19T06:52:23.032Z,8.03
2023-02-19T06:53:13.009Z,8.04
2023-02-19T06:54:02.998Z,8.04
2023-02-19T06:54:52.991Z,7.99
2023-02-19T06:55:42.972Z,7.99
2023-02-19T06:56:32.969Z,8.00
2023-02-19T06:57:22.974Z,8.02
2023-02-19T06:58:12.951Z,8.02
2023-02-19T06:59:02.960Z,8.02
2023-02-19T06:59:52.917Z,8.03
2023-02-19T07:00:42.925Z,8.02
2023-02-19T07:01:32.904Z,8.00
2023-02-19T07:02:22.927Z,8.00
2023-02-19T07:03:12.877Z,8.02
2023-02-19T07:04:02.913Z,8.02
2023-02-19T07:04:52.866Z,8.02
2023-02-19T07:05:42.860Z,8.02
2023-02-19T07:06:32.856Z,8.03
2023-02-19T07:07:22.873Z,8.02
2023-02-19T07:08:12.833Z,8.03
2023-02-19T07:09:02.823Z,8.10
2023-02-19T07:09:52.796Z,8.18
2023-02-19T07:10:42.808Z,8.20
2023-02-19T07:11:32.805Z,8.22
2023-02-19T07:12:22.788Z,8.24
2023-02-19T07:13:12.787Z,8.27
2023-02-19T07:14:02.756Z,8.25
2023-02-19T07:14:52.736Z,8.27
2023-02-19T07:15:42.754Z,8.28
2023-02-19T07:16:32.839Z,8.28
2023-02-19T07:17:22.742Z,8.24
2023-02-19T07:18:12.711Z,8.18
2023-02-19T07:19:02.704Z,8.12
2023-02-19T07:19:52.700Z,8.09
2023-02-19T07:20:42.672Z,8.07
2023-02-19T07:21:32.684Z,8.09
2023-02-19T07:22:22.701Z,8.07
2023-02-19T07:23:12.655Z,8.10
2023-02-19T07:24:02.642Z,8.12
2023-02-19T07:24:52.631Z,8.13
2023-02-19T07:25:42.640Z,8.17
2023-02-19T07:26:32.619Z,8.14
2023-02-19T07:27:22.630Z,8.20
2023-02-19T07:28:12.591Z,8.21
2023-02-19T07:29:02.590Z,8.20
2023-02-19T07:29:52.570Z,8.18
2023-02-19T07:30:42.610Z,8.18
2023-02-19T07:31:32.661Z,8.14
2023-02-19T07:32:22.572Z,8.17
2023-02-19T07:33:12.530Z,8.17
2023-02-19T07:34:02.536Z,8.17
2023-02-19T07:34:52.511Z,8.17
2023-02-19T07:35:42.509Z,8.20
2023-02-19T07:36:32.514Z,8.21
2023-02-19T07:37:22.504Z,8.22
2023-02-19T07:38:12.471Z,8.22
2023-02-19T07:39:02.470Z,8.24
2023-02-19T07:39:52.461Z,8.25
2023-02-19T07:40:42.452Z,8.27
2023-02-19T07:41:32.471Z,8.27
2023-02-19T07:42:22.460Z,8.25
2023-02-19T07:43:12.431Z,8.27
2023-02-19T07:44:02.433Z,8.29
2023-02-19T07:44:52.401Z,8.29
2023-02-19T07:45:42.466Z,8.32
2023-02-19T07:46:32.395Z,8.31
2023-02-19T07:47:22.402Z,8.32
2023-02-19T07:48:12.372Z,8.34
2023-02-19T07:49:02.387Z,8.34
2023-02-19T07:49:52.365Z,8.37
2023-02-19T07:50:42.354Z,8.36
2023-02-19T07:51:32.351Z,8.39
2023-02-19T07:52:22.336Z,8.40
2023-02-19T07:53:12.315Z,8.42
2023-02-19T07:54:02.306Z,8.45
2023-02-19T07:54:52.314Z,8.43
2023-02-19T07:55:42.283Z,8.43
2023-02-19T07:56:32.281Z,8.45
2023-02-19T07:57:22.287Z,8.46
2023-02-19T07:58:12.253Z,8.46
2023-02-19T07:59:02.260Z,8.45
2023-02-19T07:59:52.258Z,8.40
2023-02-19T08:00:42.249Z,8.40
2023-02-19T08:01:32.275Z,8.40
2023-02-19T08:02:22.241Z,8.43
2023-02-19T08:03:12.283Z,8.45
2023-02-19T08:04:02.204Z,8.45
2023-02-19T08:04:52.180Z,8.45
2023-02-19T08:05:42.199Z,8.46
2023-02-19T08:06:32.165Z,8.46
2023-02-19T08:07:22.182Z,8.42
2023-02-19T08:08:12.149Z,8.42
2023-02-19T08:09:02.137Z,8.39
2023-02-19T08:09:52.139Z,8.40
2023-02-19T08:10:42.125Z,8.40
2023-02-19T08:11:32.114Z,8.39
2023-02-19T08:12:22.145Z,8.42
2023-02-19T08:13:12.082Z,8.40
2023-02-19T08:14:02.107Z,8.42
2023-02-19T08:14:52.090Z,8.42
2023-02-19T08:15:42.081Z,8.42
2023-02-19T08:16:42.596Z,8.45
2023-02-19T08:17:23.078Z,8.45
2023-02-19T08:18:12.040Z,8.43
2023-02-19T08:19:02.026Z,8.43
2023-02-19T08:19:52.025Z,8.45
2023-02-19T08:20:42.001Z,8.45
2023-02-19T08:21:34.208Z,8.47
2023-02-19T08:22:22.024Z,8.47
2023-02-19T08:23:11.989Z,8.46
2023-02-19T08:24:01.971Z,8.45
2023-02-19T08:24:51.957Z,8.46
2023-02-19T08:25:41.964Z,8.45
2023-02-19T08:26:31.943Z,8.43
2023-02-19T08:27:21.945Z,8.43
2023-02-19T08:28:11.913Z,8.43
2023-02-19T08:29:01.906Z,8.45
2023-02-19T08:29:51.896Z,8.46
2023-02-19T08:30:42.034Z,8.46
2023-02-19T08:31:32.014Z,8.46
2023-02-19T08:32:21.889Z,8.43
2023-02-19T08:33:11.857Z,8.43
2023-02-19T08:34:01.865Z,8.43
2023-02-19T08:34:51.846Z,8.45
2023-02-19T08:35:41.853Z,8.45
2023-02-19T08:36:31.836Z,8.47
2023-02-19T08:37:21.834Z,8.49
2023-02-19T08:38:11.804Z,8.47
2023-02-19T08:39:01.793Z,8.46
2023-02-19T08:39:51.804Z,8.45
2023-02-19T08:40:41.765Z,8.42
2023-02-19T08:41:31.774Z,8.39
2023-02-19T08:42:21.781Z,8.31
2023-02-19T08:43:11.763Z,8.27
2023-02-19T08:44:01.732Z,8.25
2023-02-19T08:44:51.742Z,8.24
2023-02-19T08:45:41.753Z,8.22
2023-02-19T08:46:34.047Z,8.22
2023-02-19T08:47:21.720Z,8.21
2023-02-19T08:48:11.702Z,8.20
2023-02-19T08:49:01.690Z,8.20
2023-02-19T08:49:51.671Z,8.22
2023-02-19T08:50:41.686Z,8.21
2023-02-19T08:51:31.678Z,8.25
2023-02-19T08:52:21.652Z,8.28
2023-02-19T08:53:11.631Z,8.27
2023-02-19T08:54:01.627Z,8.25
2023-02-19T08:54:51.628Z,8.27
2023-02-19T08:55:41.618Z,8.28
2023-02-19T08:56:31.631Z,8.31
2023-02-19T08:57:21.599Z,8.32
2023-02-19T08:58:11.585Z,8.32
2023-02-19T08:59:01.578Z,8.32
2023-02-19T08:59:51.568Z,8.34
2023-02-19T09:00:41.537Z,8.40
2023-02-19T09:01:31.570Z,8.43
2023-02-19T09:02:21.546Z,8.46
2023-02-19T09:03:11.517Z,8.47
2023-02-19T09:04:01.579Z,8.47
2023-02-19T09:04:51.496Z,8.47
2023-02-19T09:05:41.490Z,8.49
2023-02-19T09:06:31.482Z,8.49
2023-02-19T09:07:21.477Z,8.47
2023-02-19T09:08:11.478Z,8.49
2023-02-19T09:09:01.447Z,8.47
2023-02-19T09:09:51.447Z,8.46
2023-02-19T09:10:41.425Z,8.43
2023-02-19T09:11:31.425Z,8.40
2023-02-19T09:12:21.437Z,8.37
2023-02-19T09:13:11.405Z,8.34
2023-02-19T09:14:01.404Z,8.34
2023-02-19T09:14:51.394Z,8.34
2023-02-19T09:15:41.414Z,8.32
2023-02-19T09:16:31.395Z,8.32
2023-02-19T09:17:21.378Z,8.31
2023-02-19T09:18:11.362Z,8.29
2023-02-19T09:19:01.333Z,8.31
2023-02-19T09:19:51.326Z,8.28
2023-02-19T09:20:41.334Z,8.28
2023-02-19T09:21:31.329Z,8.29
2023-02-19T09:22:21.314Z,8.31
2023-02-19T09:23:11.316Z,8.31
2023-02-19T09:24:01.309Z,8.34
2023-02-19T09:24:51.291Z,8.39
2023-02-19T09:25:41.285Z,8.40
2023-02-19T09:26:31.279Z,8.43
2023-02-19T09:27:21.269Z,8.43
2023-02-19T09:28:11.239Z,8.45
2023-02-19T09:29:01.249Z,8.46
2023-02-19T09:29:51.232Z,8.47
2023-02-19T09:30:41.300Z,8.46
2023-02-19T09:31:31.292Z,8.47
2023-02-19T09:32:21.224Z,8.50
2023-02-19T09:33:11.186Z,8.50
2023-02-19T09:34:01.194Z,8.54
2023-02-19T09:34:51.185Z,8.54
2023-02-19T09:35:41.157Z,8.58
2023-02-19T09:36:31.153Z,8.60
2023-02-19T09:37:21.166Z,8.58
2023-02-19T09:38:11.147Z,8.54
2023-02-19T09:39:01.129Z,8.54
2023-02-19T09:39:51.118Z,8.55
2023-02-19T09:40:41.097Z,8.57
2023-02-19T09:41:31.123Z,8.55
2023-02-19T09:42:21.118Z,8.55
2023-02-19T09:43:11.085Z,8.52
2023-02-19T09:44:01.071Z,8.52
2023-02-19T09:44:51.063Z,8.50
2023-02-19T09:45:41.056Z,8.50
2023-02-19T09:46:31.131Z,8.49
2023-02-19T09:47:21.073Z,8.52
2023-02-19T09:48:11.036Z,8.52
2023-02-19T09:49:01.022Z,8.49
2023-02-19T09:49:51.006Z,8.50
2023-02-19T09:50:41.010Z,8.52
2023-02-19T09:51:30.982Z,8.52
2023-02-19T09:52:20.994Z,8.50
2023-02-19T09:53:10.965Z,8.52
2023-02-19T09:54:00.963Z,8.52
2023-02-19T09:54:50.942Z,8.50
2023-02-19T09:55:40.926Z,8.50
2023-02-19T09:56:32.646Z,8.46
2023-02-19T09:57:20.921Z,8.46
2023-02-19T09:58:10.910Z,8.45
2023-02-19T09:59:00.890Z,8.45
2023-02-19T09:59:50.898Z,8.47
2023-02-19T10:00:40.872Z,8.49
2023-02-19T10:01:30.895Z,8.50
2023-02-19T10:02:20.890Z,8.52
2023-02-19T10:03:10.847Z,8.54
2023-02-19T10:04:00.833Z,8.55
2023-02-19T10:04:50.884Z,8.58
2023-02-19T10:05:40.808Z,8.60
2023-02-19T10:06:30.827Z,8.60
2023-02-19T10:07:20.821Z,8.63
2023-02-19T10:08:10.808Z,8.63
2023-02-19T10:09:00.786Z,8.65
2023-02-19T10:09:50.778Z,8.65
2023-02-19T10:10:40.772Z,8.71
2023-02-19T10:11:30.747Z,8.76
2023-02-19T10:12:20.767Z,8.79
2023-02-19T10:13:10.747Z,8.79
2023-02-19T10:14:00.718Z,8.80
2023-02-19T10:14:50.715Z,8.82
2023-02-19T10:15:40.801Z,8.85
2023-02-19T10:16:30.707Z,8.85
2023-02-19T10:17:20.708Z,8.85
2023-02-19T10:18:11.315Z,8.88
2023-02-19T10:19:00.680Z,8.88
2023-02-19T10:19:50.689Z,8.91
2023-02-19T10:20:40.656Z,8.88
2023-02-19T10:21:30.679Z,8.85
2023-02-19T10:22:20.643Z,8.86
2023-02-19T10:23:10.615Z,8.85
2023-02-19T10:24:00.616Z,8.88
2023-02-19T10:24:50.623Z,8.86
2023-02-19T10:25:40.587Z,8.89
2023-02-19T10:26:30.617Z,8.94
2023-02-19T10:27:20.608Z,8.94
2023-02-19T10:28:10.565Z,8.93
2023-02-19T10:29:00.557Z,8.91
2023-02-19T10:29:50.569Z,8.94
2023-02-19T10:30:40.544Z,8.97
2023-02-19T10:31:30.662Z,9.01
2023-02-19T10:32:20.572Z,9.01
2023-02-19T10:33:10.518Z,9.04
2023-02-19T10:34:00.504Z,9.08
2023-02-19T10:34:50.504Z,9.10
2023-02-19T10:35:40.492Z,9.13
2023-02-19T10:36:32.118Z,9.16
2023-02-19T10:37:20.485Z,9.17
2023-02-19T10:38:10.473Z,9.17
2023-02-19T10:39:00.442Z,9.17
2023-02-19T10:39:50.438Z,9.17
2023-02-19T10:40:40.414Z,9.19
2023-02-19T10:41:30.425Z,9.19
2023-02-19T10:42:20.416Z,9.20
2023-02-19T10:43:10.395Z,9.23
2023-02-19T10:44:00.385Z,9.26
2023-02-19T10:44:50.378Z,9.30
2023-02-19T10:45:40.384Z,9.31
2023-02-19T10:46:30.487Z,9.34
2023-02-19T10:47:20.388Z,9.34
2023-02-19T10:48:10.342Z,9.30
2023-02-19T10:49:00.351Z,9.23
2023-02-19T10:49:50.337Z,9.20
2023-02-19T10:50:40.304Z,9.23
2023-02-19T10:51:30.325Z,9.22
2023-02-19T10:52:20.320Z,9.19
2023-02-19T10:53:10.294Z,9.19
2023-02-19T10:54:00.287Z,9.20
2023-02-19T10:54:50.267Z,9.20
2023-02-19T10:55:40.264Z,9.20
2023-02-19T10:56:30.288Z,9.22
2023-02-19T10:57:20.252Z,9.17
2023-02-19T10:58:10.254Z,9.16
2023-02-19T10:59:00.253Z,9.15
2023-02-19T10:59:50.233Z,9.15